sensor_id;sensor_type;location;lat;lon;timestamp;pressure;altitude;pressure_sealevel;temperature;humidity
30873;BME280;17579;42.690;2.586;2022-12-16T00:01:12;95629.63;;;12.21;65.63
30873;BME280;17579;42.690;2.586;2022-12-16T00:03:39;95627.81;;;12.21;65.97
30873;BME280;17579;42.690;2.586;2022-12-16T00:06:07;95630.47;;;12.21;65.58
30873;BME280;17579;42.690;2.586;2022-12-16T00:08:36;95630.47;;;12.21;65.83
30873;BME280;17579;42.690;2.586;2022-12-16T00:11:02;95637.00;;;12.25;65.81
30873;BME280;17579;42.690;2.586;2022-12-16T00:13:30;95639.63;;;12.25;65.61
30873;BME280;17579;42.690;2.586;2022-12-16T00:15:56;95635.19;;;12.26;65.68
30873;BME280;17579;42.690;2.586;2022-12-16T00:18:24;95635.97;;;12.26;65.74
30873;BME280;17579;42.690;2.586;2022-12-16T00:20:51;95635.97;;;12.26;66.13
30873;BME280;17579;42.690;2.586;2022-12-16T00:23:18;95641.09;;;12.28;65.65
30873;BME280;17579;42.690;2.586;2022-12-16T00:25:45;95640.28;;;12.27;65.89
30873;BME280;17579;42.690;2.586;2022-12-16T00:28:12;95643.75;;;12.28;65.81
30873;BME280;17579;42.690;2.586;2022-12-16T00:30:38;95643.75;;;12.28;65.84
30873;BME280;17579;42.690;2.586;2022-12-16T00:33:04;95643.53;;;12.29;65.95
30873;BME280;17579;42.690;2.586;2022-12-16T00:35:30;95645.38;;;12.29;66.14
30873;BME280;17579;42.690;2.586;2022-12-16T00:37:56;95640.28;;;12.27;65.84
30873;BME280;17579;42.690;2.586;2022-12-16T00:40:22;95644.78;;;12.27;66.07
30873;BME280;17579;42.690;2.586;2022-12-16T00:42:48;95647.44;;;12.27;66.08
30873;BME280;17579;42.690;2.586;2022-12-16T00:45:14;95641.94;;;12.28;66.24
30873;BME280;17579;42.690;2.586;2022-12-16T00:47:39;95648.03;;;12.29;65.90
30873;BME280;17579;42.690;2.586;2022-12-16T00:50:06;95651.69;;;12.28;66.08
30873;BME280;17579;42.690;2.586;2022-12-16T00:52:31;95655.19;;;12.28;65.88
30873;BME280;17579;42.690;2.586;2022-12-16T00:54:57;95647.59;;;12.25;66.16
30873;BME280;17579;42.690;2.586;2022-12-16T00:57:22;95647.78;;;12.24;66.04
30873;BME280;17579;42.690;2.586;2022-12-16T00:59:48;95655.31;;;12.20;66.29
30873;BME280;17579;42.690;2.586;2022-12-16T01:02:14;95657.34;;;12.18;66.31
30873;BME280;17579;42.690;2.586;2022-12-16T01:04:40;95663.66;;;12.17;66.78
30873;BME280;17579;42.690;2.586;2022-12-16T01:07:05;95666.53;;;12.16;66.39
30873;BME280;17579;42.690;2.586;2022-12-16T01:09:30;95669.16;;;12.16;66.83
30873;BME280;17579;42.690;2.586;2022-12-16T01:11:56;95670.97;;;12.15;66.70
30873;BME280;17579;42.690;2.586;2022-12-16T01:14:22;95667.53;;;12.15;66.67
30873;BME280;17579;42.690;2.586;2022-12-16T01:16:47;95673.81;;;12.13;66.92
30873;BME280;17579;42.690;2.586;2022-12-16T01:19:13;95675.66;;;12.13;66.86
30873;BME280;17579;42.690;2.586;2022-12-16T01:21:39;95675.22;;;12.09;67.19
30873;BME280;17579;42.690;2.586;2022-12-16T01:24:04;95677.06;;;12.09;66.83
30873;BME280;17579;42.690;2.586;2022-12-16T01:26:30;95676.44;;;12.07;67.43
30873;BME280;17579;42.690;2.586;2022-12-16T01:28:56;95687.06;;;12.07;67.14
30873;BME280;17579;42.690;2.586;2022-12-16T01:31:22;95682.75;;;12.06;67.39
30873;BME280;17579;42.690;2.586;2022-12-16T01:33:49;95690.91;;;12.04;67.56
30873;BME280;17579;42.690;2.586;2022-12-16T01:36:15;95688.25;;;12.04;67.64
30873;BME280;17579;42.690;2.586;2022-12-16T01:38:42;95691.72;;;12.05;67.52
30873;BME280;17579;42.690;2.586;2022-12-16T01:41:10;95689.06;;;12.05;67.52
30873;BME280;17579;42.690;2.586;2022-12-16T01:43:37;95697.84;;;12.05;67.89
30873;BME280;17579;42.690;2.586;2022-12-16T01:46:20;95699.44;;;12.00;67.89
30873;BME280;17579;42.690;2.586;2022-12-16T01:49:01;95700.06;;;12.02;67.65
30873;BME280;17579;42.690;2.586;2022-12-16T01:51:41;95708.81;;;12.02;67.59
30873;BME280;17579;42.690;2.586;2022-12-16T01:54:40;95707.38;;;12.00;67.55
30873;BME280;17579;42.690;2.586;2022-12-16T01:57:13;95710.44;;;12.03;67.52
30873;BME280;17579;42.690;2.586;2022-12-16T01:59:43;95714.94;;;12.03;68.06
30873;BME280;17579;42.690;2.586;2022-12-16T02:02:10;95713.28;;;12.02;68.09
30873;BME280;17579;42.690;2.586;2022-12-16T02:04:36;95717.78;;;12.01;68.00
30873;BME280;17579;42.690;2.586;2022-12-16T02:07:22;95719.59;;;12.01;67.95
30873;BME280;17579;42.690;2.586;2022-12-16T02:09:47;95727.75;;;11.99;68.27
30873;BME280;17579;42.690;2.586;2022-12-16T02:12:24;95725.69;;;11.94;67.79
30873;BME280;17579;42.690;2.586;2022-12-16T02:15:17;95735.63;;;11.92;67.93
30873;BME280;17579;42.690;2.586;2022-12-16T02:18:04;95732.34;;;11.90;67.70
30873;BME280;17579;42.690;2.586;2022-12-16T02:32:51;95731.13;;;11.93;67.81
30873;BME280;17579;42.690;2.586;2022-12-16T02:41:23;95743.31;;;11.87;68.08
30873;BME280;17579;42.690;2.586;2022-12-16T02:43:54;95741.03;;;11.84;68.08
30873;BME280;17579;42.690;2.586;2022-12-16T02:46:25;95744.69;;;11.83;67.80
30873;BME280;17579;42.690;2.586;2022-12-16T02:48:53;95744.69;;;11.83;68.30
30873;BME280;17579;42.690;2.586;2022-12-16T02:51:22;95743.06;;;11.82;68.43
30873;BME280;17579;42.690;2.586;2022-12-16T02:53:50;95748.34;;;11.82;68.46
30873;BME280;17579;42.690;2.586;2022-12-16T02:56:32;95749.13;;;11.76;68.35
30873;BME280;17579;42.690;2.586;2022-12-16T03:02:06;95754.22;;;11.77;68.52
30873;BME280;17579;42.690;2.586;2022-12-16T03:04:40;95751.00;;;11.82;68.16
30873;BME280;17579;42.690;2.586;2022-12-16T03:07:12;95746.72;;;11.81;68.61
30873;BME280;17579;42.690;2.586;2022-12-16T03:09:41;95752.84;;;11.82;68.65
30873;BME280;17579;42.690;2.586;2022-12-16T03:12:11;95751.19;;;11.81;68.50
30873;BME280;17579;42.690;2.586;2022-12-16T03:14:40;95757.31;;;11.81;68.50
30873;BME280;17579;42.690;2.586;2022-12-16T03:17:07;95761.97;;;11.79;68.60
30873;BME280;17579;42.690;2.586;2022-12-16T03:19:35;95752.41;;;11.78;68.34
30873;BME280;17579;42.690;2.586;2022-12-16T03:22:08;95759.72;;;11.76;68.00
30873;BME280;17579;42.690;2.586;2022-12-16T03:24:36;95757.72;;;11.78;68.31
30873;BME280;17579;42.690;2.586;2022-12-16T03:27:18;95761.09;;;11.72;68.10
30873;BME280;17579;42.690;2.586;2022-12-16T03:30:03;95763.13;;;11.70;68.13
30873;BME280;17579;42.690;2.586;2022-12-16T03:32:37;95762.09;;;11.71;68.38
30873;BME280;17579;42.690;2.586;2022-12-16T03:35:30;95766.50;;;11.64;68.48
30873;BME280;17579;42.690;2.586;2022-12-16T03:37:59;95764.13;;;11.69;68.56
30873;BME280;17579;42.690;2.586;2022-12-16T03:40:27;95761.84;;;11.66;68.62
30873;BME280;17579;42.690;2.586;2022-12-16T03:42:53;95764.50;;;11.66;68.98
30873;BME280;17579;42.690;2.586;2022-12-16T03:45:26;95765.88;;;11.61;68.61
30873;BME280;17579;42.690;2.586;2022-12-16T03:47:56;95764.88;;;11.63;68.81
30873;BME280;17579;42.690;2.586;2022-12-16T03:50:27;95766.69;;;11.62;69.02
30873;BME280;17579;42.690;2.586;2022-12-16T03:52:55;95764.69;;;11.64;69.06
30873;BME280;17579;42.690;2.586;2022-12-16T03:55:20;95764.03;;;11.62;69.03
30873;BME280;17579;42.690;2.586;2022-12-16T03:57:46;95772.63;;;11.64;69.19
30873;BME280;17579;42.690;2.586;2022-12-16T04:00:11;95767.97;;;11.66;68.97
30873;BME280;17579;42.690;2.586;2022-12-16T04:02:37;95768.63;;;11.68;68.92
30873;BME280;17579;42.690;2.586;2022-12-16T04:05:03;95769.22;;;11.70;69.00
30873;BME280;17579;42.690;2.586;2022-12-16T04:07:29;95772.53;;;11.72;68.85
30873;BME280;17579;42.690;2.586;2022-12-16T04:09:55;95777.19;;;11.70;68.61
30873;BME280;17579;42.690;2.586;2022-12-16T04:12:21;95778.56;;;11.66;68.66
30873;BME280;17579;42.690;2.586;2022-12-16T04:14:58;95779.94;;;11.62;68.68
30873;BME280;17579;42.690;2.586;2022-12-16T04:17:36;95776.28;;;11.63;68.66
30873;BME280;17579;42.690;2.586;2022-12-16T04:20:15;95781.84;;;11.68;68.62
30873;BME280;17579;42.690;2.586;2022-12-16T04:22:53;95775.78;;;11.74;68.68
30873;BME280;17579;42.690;2.586;2022-12-16T04:25:33;95777.44;;;11.75;68.35
30873;BME280;17579;42.690;2.586;2022-12-16T04:28:00;95786.84;;;11.78;68.69
30873;BME280;17579;42.690;2.586;2022-12-16T04:30:28;95779.72;;;11.78;68.74
30873;BME280;17579;42.690;2.586;2022-12-16T04:33:03;95788.66;;;11.77;68.26
30873;BME280;17579;42.690;2.586;2022-12-16T04:35:43;95795.22;;;11.82;68.25
30873;BME280;17579;42.690;2.586;2022-12-16T04:38:21;95800.00;;;11.71;67.89
30873;BME280;17579;42.690;2.586;2022-12-16T04:40:58;95803.97;;;11.60;68.10
30873;BME280;17579;42.690;2.586;2022-12-16T04:43:36;95808.38;;;11.53;68.66
30873;BME280;17579;42.690;2.586;2022-12-16T04:46:13;95809.59;;;11.51;68.94
30873;BME280;17579;42.690;2.586;2022-12-16T04:48:51;95809.00;;;11.55;68.79
30873;BME280;17579;42.690;2.586;2022-12-16T04:51:28;95814.56;;;11.60;68.69
30873;BME280;17579;42.690;2.586;2022-12-16T04:54:06;95810.09;;;11.61;68.84
30873;BME280;17579;42.690;2.586;2022-12-16T04:56:43;95816.00;;;11.63;68.93
30873;BME280;17579;42.690;2.586;2022-12-16T04:59:21;95821.13;;;11.65;68.72
30873;BME280;17579;42.690;2.586;2022-12-16T05:01:58;95821.50;;;11.61;68.49
30873;BME280;17579;42.690;2.586;2022-12-16T05:04:35;95819.66;;;11.62;68.85
30873;BME280;17579;42.690;2.586;2022-12-16T05:07:13;95821.31;;;11.63;68.97
30873;BME280;17579;42.690;2.586;2022-12-16T05:09:50;95818.47;;;11.65;68.41
30873;BME280;17579;42.690;2.586;2022-12-16T05:12:28;95821.78;;;11.67;68.67
30873;BME280;17579;42.690;2.586;2022-12-16T05:15:06;95826.03;;;11.68;68.18
30873;BME280;17579;42.690;2.586;2022-12-16T05:17:51;95830.53;;;11.67;68.41
30873;BME280;17579;42.690;2.586;2022-12-16T05:20:29;95833.75;;;11.63;68.38
30873;BME280;17579;42.690;2.586;2022-12-16T05:23:06;95832.47;;;11.58;68.11
30873;BME280;17579;42.690;2.586;2022-12-16T05:25:44;95829.34;;;11.55;68.33
30873;BME280;17579;42.690;2.586;2022-12-16T05:28:21;95838.31;;;11.54;68.18
30873;BME280;17579;42.690;2.586;2022-12-16T05:30:58;95845.00;;;11.50;68.04
30873;BME280;17579;42.690;2.586;2022-12-16T05:33:36;95840.25;;;11.45;68.20
30873;BME280;17579;42.690;2.586;2022-12-16T05:36:13;95844.09;;;11.42;68.17
30873;BME280;17579;42.690;2.586;2022-12-16T05:38:51;95840.38;;;11.37;68.17
30873;BME280;17579;42.690;2.586;2022-12-16T05:41:29;95837.06;;;11.35;68.18
30873;BME280;17579;42.690;2.586;2022-12-16T05:44:07;95836.81;;;11.30;68.55
30873;BME280;17579;42.690;2.586;2022-12-16T05:46:44;95834.16;;;11.30;68.70
30873;BME280;17579;42.690;2.586;2022-12-16T05:49:22;95836.81;;;11.30;68.34
30873;BME280;17579;42.690;2.586;2022-12-16T05:51:59;95846.41;;;11.31;68.30
30873;BME280;17579;42.690;2.586;2022-12-16T05:54:36;95853.31;;;11.32;68.38
30873;BME280;17579;42.690;2.586;2022-12-16T05:57:14;95843.56;;;11.32;68.52
30873;BME280;17579;42.690;2.586;2022-12-16T05:59:51;95852.94;;;11.35;68.38
30873;BME280;17579;42.690;2.586;2022-12-16T06:02:29;95854.59;;;11.36;68.59
30873;BME280;17579;42.690;2.586;2022-12-16T06:05:06;95858.25;;;11.35;68.49
30873;BME280;17579;42.690;2.586;2022-12-16T06:07:50;95858.00;;;11.30;68.30
30873;BME280;17579;42.690;2.586;2022-12-16T06:10:28;95861.91;;;11.34;68.65
30873;BME280;17579;42.690;2.586;2022-12-16T06:13:06;95867.84;;;11.36;68.51
30873;BME280;17579;42.690;2.586;2022-12-16T06:15:44;95859.06;;;11.35;68.28
30873;BME280;17579;42.690;2.586;2022-12-16T06:18:22;95859.06;;;11.35;68.52
30873;BME280;17579;42.690;2.586;2022-12-16T06:20:59;95867.56;;;11.31;68.38
30873;BME280;17579;42.690;2.586;2022-12-16T06:23:37;95868.19;;;11.33;68.70
30873;BME280;17579;42.690;2.586;2022-12-16T06:26:14;95869.00;;;11.33;68.68
30873;BME280;17579;42.690;2.586;2022-12-16T06:28:52;95873.13;;;11.36;68.46
30873;BME280;17579;42.690;2.586;2022-12-16T06:31:29;95873.13;;;11.36;68.23
30873;BME280;17579;42.690;2.586;2022-12-16T06:34:07;95885.56;;;11.35;68.42
30873;BME280;17579;42.690;2.586;2022-12-16T06:36:44;95885.75;;;11.34;68.20
30873;BME280;17579;42.690;2.586;2022-12-16T06:39:22;95894.84;;;11.31;68.02
30873;BME280;17579;42.690;2.586;2022-12-16T06:41:59;95890.56;;;11.30;67.89
30873;BME280;17579;42.690;2.586;2022-12-16T06:44:37;95891.56;;;11.29;67.85
30873;BME280;17579;42.690;2.586;2022-12-16T06:47:14;95899.50;;;11.29;67.86
30873;BME280;17579;42.690;2.586;2022-12-16T06:49:52;95901.69;;;11.25;67.80
30873;BME280;17579;42.690;2.586;2022-12-16T06:52:29;95900.72;;;11.26;67.77
30873;BME280;17579;42.690;2.586;2022-12-16T06:55:07;95895.78;;;11.23;68.04
30873;BME280;17579;42.690;2.586;2022-12-16T06:57:44;95897.41;;;11.24;68.03
30873;BME280;17579;42.690;2.586;2022-12-16T07:00:22;95906.38;;;11.23;67.98
30873;BME280;17579;42.690;2.586;2022-12-16T07:02:59;95903.88;;;11.22;67.80
30873;BME280;17579;42.690;2.586;2022-12-16T07:05:36;95908.72;;;11.18;67.53
30873;BME280;17579;42.690;2.586;2022-12-16T07:08:14;95909.28;;;11.14;67.83
30873;BME280;17579;42.690;2.586;2022-12-16T07:10:51;95912.13;;;11.12;67.80
30873;BME280;17579;42.690;2.586;2022-12-16T07:13:29;95912.28;;;11.11;67.63
30873;BME280;17579;42.690;2.586;2022-12-16T07:16:06;95920.56;;;11.07;67.57
30873;BME280;17579;42.690;2.586;2022-12-16T07:18:44;95931.50;;;11.04;67.30
30873;BME280;17579;42.690;2.586;2022-12-16T07:21:21;95934.25;;;10.96;67.41
30873;BME280;17579;42.690;2.586;2022-12-16T07:23:59;95935.44;;;10.94;67.81
30873;BME280;17579;42.690;2.586;2022-12-16T07:26:36;95930.34;;;10.92;67.38
30873;BME280;17579;42.690;2.586;2022-12-16T07:29:14;95938.28;;;10.92;67.66
30873;BME280;17579;42.690;2.586;2022-12-16T07:31:51;95947.19;;;10.91;67.28
30873;BME280;17579;42.690;2.586;2022-12-16T07:34:28;95943.91;;;10.89;67.53
30873;BME280;17579;42.690;2.586;2022-12-16T07:37:06;95944.91;;;10.88;67.61
30873;BME280;17579;42.690;2.586;2022-12-16T07:39:43;95949.03;;;10.90;67.69
30873;BME280;17579;42.690;2.586;2022-12-16T07:42:22;95962.88;;;10.92;67.70
30873;BME280;17579;42.690;2.586;2022-12-16T07:44:59;95958.59;;;10.91;67.41
30873;BME280;17579;42.690;2.586;2022-12-16T07:47:37;95961.06;;;10.93;67.58
30873;BME280;17579;42.690;2.586;2022-12-16T07:50:14;95959.44;;;10.92;67.52
30873;BME280;17579;42.690;2.586;2022-12-16T07:52:54;95965.53;;;10.92;67.41
30873;BME280;17579;42.690;2.586;2022-12-16T07:55:31;95970.66;;;10.94;67.64
30873;BME280;17579;42.690;2.586;2022-12-16T07:58:09;95979.88;;;10.98;67.57
30873;BME280;17579;42.690;2.586;2022-12-16T08:00:46;95983.81;;;11.02;67.64
30873;BME280;17579;42.690;2.586;2022-12-16T08:03:24;95991.03;;;11.08;68.11
30873;BME280;17579;42.690;2.586;2022-12-16T08:06:01;95990.28;;;11.15;68.12
30873;BME280;17579;42.690;2.586;2022-12-16T08:08:39;95989.78;;;11.19;68.14
30873;BME280;17579;42.690;2.586;2022-12-16T08:11:16;96004.31;;;11.23;67.90
30873;BME280;17579;42.690;2.586;2022-12-16T08:13:53;96002.28;;;11.25;68.04
30873;BME280;17579;42.690;2.586;2022-12-16T08:16:31;95999.28;;;11.29;68.15
30873;BME280;17579;42.690;2.586;2022-12-16T08:19:08;96003.03;;;11.34;68.41
30873;BME280;17579;42.690;2.586;2022-12-16T08:21:46;96012.25;;;11.38;68.46
30873;BME280;17579;42.690;2.586;2022-12-16T08:24:23;96012.53;;;11.43;68.03
30873;BME280;17579;42.690;2.586;2022-12-16T08:27:01;96020.13;;;11.47;68.43
30873;BME280;17579;42.690;2.586;2022-12-16T08:29:38;96015.28;;;11.50;68.48
30873;BME280;17579;42.690;2.586;2022-12-16T08:32:16;96025.69;;;11.52;68.37
30873;BME280;17579;42.690;2.586;2022-12-16T08:34:53;96025.31;;;11.55;68.44
30873;BME280;17579;42.690;2.586;2022-12-16T08:37:31;96027.63;;;11.58;68.04
30873;BME280;17579;42.690;2.586;2022-12-16T08:40:09;96031.53;;;11.62;68.02
30873;BME280;17579;42.690;2.586;2022-12-16T08:42:46;96027.88;;;11.63;67.91
30873;BME280;17579;42.690;2.586;2022-12-16T08:45:24;96041.59;;;11.67;68.23
30873;BME280;17579;42.690;2.586;2022-12-16T08:48:01;96039.38;;;11.70;68.03
30873;BME280;17579;42.690;2.586;2022-12-16T08:50:39;96047.63;;;11.75;68.06
30873;BME280;17579;42.690;2.586;2022-12-16T08:53:16;96042.59;;;11.81;68.31
30873;BME280;17579;42.690;2.586;2022-12-16T08:55:54;96050.81;;;11.86;68.51
30873;BME280;17579;42.690;2.586;2022-12-16T08:58:31;96056.56;;;11.89;68.50
30873;BME280;17579;42.690;2.586;2022-12-16T09:01:09;96059.53;;;11.94;67.92
30873;BME280;17579;42.690;2.586;2022-12-16T09:03:46;96064.81;;;11.94;68.16
30873;BME280;17579;42.690;2.586;2022-12-16T09:06:24;96063.00;;;11.95;68.10
30873;BME280;17579;42.690;2.586;2022-12-16T09:09:01;96073.88;;;12.00;68.58
30873;BME280;17579;42.690;2.586;2022-12-16T09:11:39;96067.66;;;12.08;68.60
30873;BME280;17579;42.690;2.586;2022-12-16T09:14:16;96075.69;;;12.15;68.37
30873;BME280;17579;42.690;2.586;2022-12-16T09:16:54;96080.06;;;12.22;68.47
30873;BME280;17579;42.690;2.586;2022-12-16T09:19:39;96078.50;;;12.28;68.29
30873;BME280;17579;42.690;2.586;2022-12-16T09:22:16;96088.41;;;12.34;68.25
30873;BME280;17579;42.690;2.586;2022-12-16T09:24:54;96095.59;;;12.40;68.14
30873;BME280;17579;42.690;2.586;2022-12-16T09:27:31;96099.34;;;12.46;67.99
30873;BME280;17579;42.690;2.586;2022-12-16T09:30:09;96103.72;;;12.54;68.01
30873;BME280;17579;42.690;2.586;2022-12-16T09:32:47;96111.94;;;12.59;67.91
30873;BME280;17579;42.690;2.586;2022-12-16T09:35:24;96108.53;;;12.65;68.10
30873;BME280;17579;42.690;2.586;2022-12-16T09:38:02;96106.34;;;12.69;67.70
30873;BME280;17579;42.690;2.586;2022-12-16T09:40:41;96116.59;;;12.72;67.50
30873;BME280;17579;42.690;2.586;2022-12-16T09:43:39;96125.28;;;12.65;67.60
30873;BME280;17579;42.690;2.586;2022-12-16T09:49:41;96124.97;;;12.75;67.41
30873;BME280;17579;42.690;2.586;2022-12-16T09:52:20;96114.53;;;12.89;67.20
30873;BME280;17579;42.690;2.586;2022-12-16T09:54:59;96116.06;;;12.98;66.97
30873;BME280;17579;42.690;2.586;2022-12-16T09:57:37;96110.16;;;13.03;66.99
30873;BME280;17579;42.690;2.586;2022-12-16T10:00:19;96117.03;;;13.12;67.43
30873;BME280;17579;42.690;2.586;2022-12-16T10:02:58;96116.13;;;13.26;66.75
30873;BME280;17579;42.690;2.586;2022-12-16T10:15:11;96111.81;;;13.25;66.42
30873;BME280;17579;42.690;2.586;2022-12-16T10:17:51;96117.66;;;13.36;66.68
30873;BME280;17579;42.690;2.586;2022-12-16T10:20:42;96114.19;;;13.35;66.54
30873;BME280;17579;42.690;2.586;2022-12-16T10:23:52;96112.63;;;13.41;66.74
30873;BME280;17579;42.690;2.586;2022-12-16T10:29:39;96121.16;;;13.58;67.62
30873;BME280;17579;42.690;2.586;2022-12-16T10:32:28;96121.38;;;13.63;67.20
30873;BME280;17579;42.690;2.586;2022-12-16T10:35:30;96118.19;;;13.74;66.77
30873;BME280;17579;42.690;2.586;2022-12-16T10:38:26;96127.84;;;13.82;66.69
30873;BME280;17579;42.690;2.586;2022-12-16T10:41:05;96125.09;;;13.97;65.31
30873;BME280;17579;42.690;2.586;2022-12-16T10:43:46;96123.72;;;14.08;65.50
30873;BME280;17579;42.690;2.586;2022-12-16T10:46:27;96122.59;;;14.17;65.39
30873;BME280;17579;42.690;2.586;2022-12-16T10:49:14;96127.75;;;14.25;64.74
30873;BME280;17579;42.690;2.586;2022-12-16T10:51:52;96129.75;;;14.23;64.57
30873;BME280;17579;42.690;2.586;2022-12-16T10:54:34;96128.91;;;14.16;64.16
30873;BME280;17579;42.690;2.586;2022-12-16T10:57:44;96120.88;;;14.09;64.28
30873;BME280;17579;42.690;2.586;2022-12-16T11:00:44;96119.78;;;13.97;64.34
30873;BME280;17579;42.690;2.586;2022-12-16T11:03:31;96120.66;;;14.04;64.97
30873;BME280;17579;42.690;2.586;2022-12-16T11:06:10;96107.81;;;14.14;64.30
30873;BME280;17579;42.690;2.586;2022-12-16T11:08:49;96105.97;;;14.15;64.80
30873;BME280;17579;42.690;2.586;2022-12-16T11:11:29;96114.16;;;14.13;64.45
30873;BME280;17579;42.690;2.586;2022-12-16T11:14:25;96110.63;;;13.99;64.28
30873;BME280;17579;42.690;2.586;2022-12-16T11:17:21;96122.19;;;13.85;64.38
30873;BME280;17579;42.690;2.586;2022-12-16T11:20:19;96125.38;;;13.80;64.57
30873;BME280;17579;42.690;2.586;2022-12-16T11:23:16;96119.97;;;13.67;64.40
30873;BME280;17579;42.690;2.586;2022-12-16T11:26:14;96126.00;;;13.54;64.70
30873;BME280;17579;42.690;2.586;2022-12-16T11:29:13;96132.03;;;13.41;64.72
30873;BME280;17579;42.690;2.586;2022-12-16T11:35:02;96132.03;;;13.41;64.50
30873;BME280;17579;42.690;2.586;2022-12-16T11:37:42;96138.66;;;13.52;64.98
30873;BME280;17579;42.690;2.586;2022-12-16T11:40:21;96135.78;;;13.75;65.17
30873;BME280;17579;42.690;2.586;2022-12-16T11:43:04;96145.38;;;13.98;64.76
30873;BME280;17579;42.690;2.586;2022-12-16T11:45:42;96136.09;;;14.22;64.35
30873;BME280;17579;42.690;2.586;2022-12-16T11:48:43;96135.94;;;14.30;64.48
30873;BME280;17579;42.690;2.586;2022-12-16T11:51:25;96133.38;;;14.50;63.89
30873;BME280;17579;42.690;2.586;2022-12-16T11:54:13;96136.09;;;14.57;63.63
30873;BME280;17579;42.690;2.586;2022-12-16T11:56:51;96135.97;;;14.65;62.45
30873;BME280;17579;42.690;2.586;2022-12-16T11:59:46;96132.25;;;14.66;62.73
30873;BME280;17579;42.690;2.586;2022-12-16T12:02:54;96122.09;;;14.83;63.77
30873;BME280;17579;42.690;2.586;2022-12-16T12:05:51;96127.06;;;15.06;62.78
30873;BME280;17579;42.690;2.586;2022-12-16T12:08:45;96130.56;;;15.14;61.88
30873;BME280;17579;42.690;2.586;2022-12-16T12:11:31;96136.91;;;15.13;62.18
30873;BME280;17579;42.690;2.586;2022-12-16T12:14:30;96127.28;;;15.05;62.24
30873;BME280;17579;42.690;2.586;2022-12-16T12:17:23;96131.59;;;15.06;62.25
30873;BME280;17579;42.690;2.586;2022-12-16T12:26:45;96140.81;;;15.17;61.80
30873;BME280;17579;42.690;2.586;2022-12-16T12:36:01;96130.03;;;15.52;61.32
30873;BME280;17579;42.690;2.586;2022-12-16T12:39:06;96131.44;;;15.41;60.98
30873;BME280;17579;42.690;2.586;2022-12-16T12:42:04;96131.25;;;15.36;60.77
30873;BME280;17579;42.690;2.586;2022-12-16T12:48:17;96118.06;;;15.07;60.86
30873;BME280;17579;42.690;2.586;2022-12-16T12:51:06;96124.78;;;14.97;59.96
30873;BME280;17579;42.690;2.586;2022-12-16T12:54:14;96128.03;;;14.85;60.55
30873;BME280;17579;42.690;2.586;2022-12-16T12:56:56;96133.34;;;14.85;60.26
30873;BME280;17579;42.690;2.586;2022-12-16T13:00:02;96137.81;;;14.71;60.62
30873;BME280;17579;42.690;2.586;2022-12-16T13:02:51;96130.66;;;14.72;60.48
30873;BME280;17579;42.690;2.586;2022-12-16T13:05:32;96129.66;;;14.80;60.96
30873;BME280;17579;42.690;2.586;2022-12-16T13:11:12;96135.41;;;14.83;60.99
30873;BME280;17579;42.690;2.586;2022-12-16T13:13:50;96138.03;;;14.70;60.52
30873;BME280;17579;42.690;2.586;2022-12-16T13:16:57;96136.09;;;14.57;61.62
30873;BME280;17579;42.690;2.586;2022-12-16T13:19:42;96149.16;;;14.52;61.60
30873;BME280;17579;42.690;2.586;2022-12-16T13:22:40;96151.34;;;14.42;61.70
30873;BME280;17579;42.690;2.586;2022-12-16T13:25:30;96145.13;;;14.28;62.07
30873;BME280;17579;42.690;2.586;2022-12-16T13:28:20;96141.59;;;14.14;62.17
30873;BME280;17579;42.690;2.586;2022-12-16T13:31:02;96150.81;;;14.18;62.17
30873;BME280;17579;42.690;2.586;2022-12-16T13:33:49;96147.56;;;14.23;62.89
30873;BME280;17579;42.690;2.586;2022-12-16T13:36:33;96142.47;;;14.28;62.41
30873;BME280;17579;42.690;2.586;2022-12-16T13:39:31;96153.69;;;14.23;62.28
30873;BME280;17579;42.690;2.586;2022-12-16T13:45:28;96151.25;;;14.21;62.18
30873;BME280;17579;42.690;2.586;2022-12-16T13:48:25;96151.84;;;14.24;62.13
30873;BME280;17579;42.690;2.586;2022-12-16T13:51:03;96152.91;;;14.29;61.85
30873;BME280;17579;42.690;2.586;2022-12-16T13:53:47;96166.81;;;14.25;62.09
30873;BME280;17579;42.690;2.586;2022-12-16T13:56:33;96166.41;;;14.28;62.45
30873;BME280;17579;42.690;2.586;2022-12-16T13:59:16;96171.34;;;14.31;61.70
30873;BME280;17579;42.690;2.586;2022-12-16T14:01:57;96171.13;;;14.26;61.74
30873;BME280;17579;42.690;2.586;2022-12-16T14:04:45;96170.88;;;14.20;61.88
30873;BME280;17579;42.690;2.586;2022-12-16T14:07:25;96169.47;;;14.25;61.56
30873;BME280;17579;42.690;2.586;2022-12-16T14:10:04;96173.09;;;14.17;61.85
30873;BME280;17579;42.690;2.586;2022-12-16T14:12:56;96173.69;;;14.12;62.00
30873;BME280;17579;42.690;2.586;2022-12-16T14:21:53;96181.66;;;14.12;62.40
30873;BME280;17579;42.690;2.586;2022-12-16T14:24:37;96191.47;;;14.12;62.02
30873;BME280;17579;42.690;2.586;2022-12-16T14:27:17;96195.53;;;14.08;62.11
30873;BME280;17579;42.690;2.586;2022-12-16T14:29:55;96200.22;;;14.06;62.44
30873;BME280;17579;42.690;2.586;2022-12-16T14:32:33;96203.28;;;14.02;62.60
30873;BME280;17579;42.690;2.586;2022-12-16T14:35:16;96209.19;;;13.98;62.53
30873;BME280;17579;42.690;2.586;2022-12-16T14:37:54;96203.84;;;13.98;62.61
30873;BME280;17579;42.690;2.586;2022-12-16T14:40:32;96211.00;;;13.97;62.40
30873;BME280;17579;42.690;2.586;2022-12-16T14:43:15;96208.66;;;13.88;62.94
30873;BME280;17579;42.690;2.586;2022-12-16T14:45:54;96215.81;;;13.87;62.68
30873;BME280;17579;42.690;2.586;2022-12-16T14:48:37;96221.91;;;13.81;63.24
30873;BME280;17579;42.690;2.586;2022-12-16T14:51:28;96224.50;;;13.74;63.70
30873;BME280;17579;42.690;2.586;2022-12-16T14:54:19;96235.31;;;13.73;63.62
30873;BME280;17579;42.690;2.586;2022-12-16T14:56:56;96244.09;;;13.73;63.86
30873;BME280;17579;42.690;2.586;2022-12-16T14:59:34;96246.06;;;13.64;63.93
30873;BME280;17579;42.690;2.586;2022-12-16T15:02:26;96248.88;;;13.56;64.02
30873;BME280;17579;42.690;2.586;2022-12-16T15:05:06;96250.09;;;13.60;64.18
30873;BME280;17579;42.690;2.586;2022-12-16T15:07:44;96254.19;;;13.56;64.27